Aviation Digital Data Service (ADDS)

Output produced by TAFs form (0503 UTC 27 July 2017)
found at http://www.aviationweather.gov/adds/tafs/
 
KEAU 270403Z 2704/2724 VRB02KT P6SM SCT250 
     TEMPO 2709/2713 1SM BR MIFG BKN007 
     FM271300 03004KT P6SM SCT040
       
KRNH 262334Z 2700/2724 32005KT P6SM SCT250 
     TEMPO 2708/2712 3SM BR MIFG 
     FM271400 02006KT P6SM SCT050
       
KMSP 270305Z 2703/2806 35003KT P6SM FEW250 
     FM271700 01006KT P6SM SCT050